• Join FlightAware (Why Join?)
  • Login
  • US Flag 
10:24AM EDT


 

Airport Tracker/Info


-or-


 

Live Flight TrackerFlight Track Log ✈ DLX119 ✈ 01-Jul-2013 ✈ O46 - KSQL

Flight Track Log - Related Links

Times and Time Zones

All times are in EDT time to prevent confusion due to time zone crossing. See the DLX119 flight status page for this flight to view local times or setup timezone preferences in your user account.

Time Position Orientation Groundspeed Altitude Reporting Facility
EDT Latitude Longitude Course Direction KTS MPH feet Rate Location/Type
11:34AM 41.5297 -122.5539 221° Southwest 131 151 9,700  Level Oakland Center
11:35AM 41.4894 -122.5617 188° South 145 167 11,500 1,740 Climbing Oakland Center
11:36AM 41.4439 -122.5628 181° South 159 183 13,300 1,740 Climbing Oakland Center
11:37AM 41.3961 -122.5697 186° South 161 185 15,300 1,560 Climbing Seattle Center
11:38AM 41.3542 -122.5714 182° South 162 186 16,600 1,500 Climbing Oakland Center
11:39AM 41.3044 -122.5764 184° South 162 186 18,300 1,260 Climbing Oakland Center
11:40AM 41.6237 -122.5800 221° Southwest  Level FlightAware Approximate
11:40AM 41.2572 -122.5825 186° South 171 197 19,200  Level Oakland Center
11:41AM 41.2044 -122.5878 184° South 188 216 20,200 840 Climbing Oakland Center
11:42AM 41.1508 -122.5917 183° South 192 221 21,000 360 Climbing Oakland Center
11:43AM 41.0922 -122.5972 184° South 210 242 21,000  Level Oakland Center
11:44AM 41.0169 -122.6053 185° South 227 261 21,000  Level Oakland Center
11:45AM 40.9517 -122.6072 181° South 234 269 21,000  Level Oakland Center
11:46AM 40.8881 -122.6097 182° South 231 266 21,000  Level Oakland Center
11:47AM 40.8233 -122.6133 182° South 235 270 21,000  Level Oakland Center
11:49AM 40.7597 -122.6164 182° South 231 266 21,000  Level Oakland Center
11:50AM 40.6956 -122.6189 182° South 230 265 21,000  Level Oakland Center
11:51AM 40.6311 -122.6228 183° South 232 267 21,000  Level Oakland Center
11:52AM 40.5539 -122.6261 182° South 231 266 21,000  Level Oakland Center
11:53AM 40.4894 -122.6294 182° South 232 267 21,000  Level Oakland Center
11:54AM 40.4250 -122.6331 182° South 233 268 21,000  Level Oakland Center
11:55AM 40.3608 -122.6364 182° South 232 267 21,000  Level Oakland Center
11:56AM 40.2969 -122.6392 182° South 232 267 21,000 600 Level Oakland Center
11:57AM 40.2403 -122.6419 182° South 208 239 22,300 960 Climbing Oakland Center
11:58AM 40.1886 -122.6447 182° South 190 219 23,000 300 Climbing Oakland Center
11:59AM 40.1197 -122.6492 183° South 204 235 23,000  Level Oakland Center
12:00PM 40.0592 -122.6522 182° South 215 247 23,000  Level Oakland Center
12:01PM 39.9981 -122.6544 182° South 220 253 23,000  Level Oakland Center
12:03PM 39.8750 -122.6606 182° South 223 257 23,000  Level Oakland Center
12:04PM 39.8139 -122.6631 182° South 221 254 23,000  Level Oakland Center
12:05PM 39.7517 -122.6661 182° South 224 258 23,000  Level Oakland Center
12:06PM 39.6772 -122.6700 182° South 225 259 23,000  Level Oakland Center
12:07PM 39.6158 -122.6731 182° South 223 257 23,000  Level Oakland Center
12:08PM 39.5542 -122.6758 182° South 222 255 23,000  Level Oakland Center
12:09PM 39.4925 -122.6792 182° South 223 257 23,000  Level Oakland Center
12:10PM 39.4306 -122.6819 182° South 222 255 23,000  Level Oakland Center
12:11PM 39.3700 -122.6847 182° South 220 253 23,000  Level Oakland Center
12:12PM 39.3083 -122.6875 182° South 221 254 23,000  Level Oakland Center
12:13PM 39.2461 -122.6911 183° South 223 257 23,000  Level Oakland Center
12:14PM 39.1803 -122.6939 182° South 225 259 23,000  Level Oakland Center
12:15PM 39.1178 -122.6969 182° South 225 259 23,000  Level Oakland Center
12:16PM 39.0550 -122.6989 181° South 225 259 23,000 -120 Level Oakland Center
12:17PM 38.9794 -122.7014 181° South 226 260 22,800 -300 Descending Oakland Center
12:18PM 38.9133 -122.7053 183° South 236 272 22,400 -720 Descending Oakland Center
12:19PM 38.8461 -122.7094 183° South 243 280 21,400 -1,020 Descending Oakland Center
12:20PM 38.7753 -122.7133 182° South 252 290 20,400 -1,020 Descending Oakland Center
12:21PM 38.7039 -122.7161 182° South 257 296 19,400 -1,020 Descending Oakland Center
12:22PM 38.6322 -122.7197 182° South 257 296 18,400 -1,020 Descending Oakland Center
12:23PM 38.5603 -122.7228 182° South 259 298 17,400 -1,140 Descending Oakland Center
12:24PM 38.4883 -122.7250 181° South 259 298 16,200 -1,320 Descending Oakland Center
12:26PM 38.4134 -122.7199 177° South  Level FlightAware Approximate
12:26PM 38.3342 -122.7325 177° South 250 288 13,400  Level Oakland Center
12:27PM 38.2669 -122.7372 183° South 242 278 12,200 -1,260 Descending Oakland Center
12:28PM 38.2011 -122.7383 181° South 238 274 10,900 -1,200 Descending Oakland Center
12:29PM 38.1339 -122.7422 183° South 242 278 9,800 -1,320 Descending Oakland Center
12:31PM 38.0167 -122.7500 183° South 244 281 7,400 -1,440 Descending Northern Cal TRACON
12:32PM 37.9500 -122.7333 169° South 248 285 6,200 -1,140 Descending Northern Cal TRACON
12:33PM 37.9350 -122.7267 161° South 250 288 5,800 -780 Descending Oakland Center
12:34PM 37.8739 -122.6872 153° Southeast 249 287 5,000 -540 Descending Oakland Center
12:35PM 37.8056 -122.6472 155° Southeast 240 276 4,800 -420 Descending Oakland Center
12:36PM 37.7492 -122.6147 155° Southeast 232 267 4,200 -420 Descending Oakland Center
12:37PM 37.6944 -122.5833 156° South 226 260 4,000 -120 Descending Oakland Center
12:38PM 37.6456 -122.5489 151° Southeast 216 249 4,000  Level Oakland Center
12:39PM 37.6119 -122.5064 135° Southeast 188 216 4,000  Level Oakland Center
12:40PM 37.5669 -122.4536 137° Southeast 188 216 4,000 -300 Level Oakland Center
12:41PM 37.5492 -122.4056 115° Southeast 182 209 3,500 -540 Descending Oakland Center
12:42PM 37.5314 -122.3419 109° East 179 206 3,000 -1,260 Descending Oakland Center
12:43PM 37.5500 -122.2833 68° East 111 128 800 -1,260 Descending Northern Cal TRACON
12:44PM 37.5333 -122.2667 142° Southeast 96 110 300 -540 Descending Northern Cal TRACON
12:46PM 37.5119 -122.2495 148° Southeast  Level Estimated
12:53PM 37.5118 -122.2495 210° Southwest  Level Estimated
12:54PM 37.5119 -122.2495 330° Northwest  Level Estimated
12:55PM 37.5118 -122.2495 210° Southwest  Level Estimated
12:56PM 37.5119 -122.2495 330° Northwest  Level Estimated
12:57PM 37.5118 -122.2495 210° Southwest  Level Estimated
12:58PM 37.5119 -122.2495 330° Northwest  Level Estimated
12:59PM 37.5118 -122.2495 210° Southwest  Level Estimated
01:00PM 37.5119 -122.2495 330° Northwest  Level Estimated
01:01PM 37.5118 -122.2495 210° Southwest  Level Estimated
01:02PM 37.5119 -122.2495 330° Northwest  Level Estimated
01:03PM 37.5118 -122.2495 210° Southwest  Level Estimated